Aviation Digital Data Service (ADDS)

Output produced by METARs form (1240 UTC 17 September 2019)
found at http://www.aviationweather.gov/metar/data/
 
Forecast for: RJOM (MATSUYAMA AIRPOR, JP)
Text: TAF RJOM 171110Z 1712/1818 12005KT 9999 FEW030 SCT050
Forecast period: 1200 to 2200 UTC 17 September 2019
Forecast type: FROM: standard forecast or significant change
Winds: from the ESE (120 degrees) at 6 MPH (5 knots; 2.6 m/s)
Visibility: 6 or more miles 10+ km)
Ceiling: at least 12,000 feet AGL
Clouds: few clouds at 3000 feet AGL
scattered clouds at 5000 feet AGL
Weather: no significant weather forecast for this period
Text: BECMG 1722/1800 02014KT
Forecast period: 2200 UTC 17 September 2019 to 1800 UTC 18 September 2019
Forecast type: BECOMING: Conditions expected to become as follows by 0000 UTC 18 September 2019
Winds: from the NNE (20 degrees) at 16 MPH (14 knots; 7.2 m/s)
Visibility: 6 or more miles 10+ km)
Ceiling: at least 12,000 feet AGL
Clouds: few clouds at 3000 feet AGL
scattered clouds at 5000 feet AGL
Weather: no significant weather forecast for this period